sensor_id;sensor_type;location;lat;lon;timestamp;pressure;altitude;pressure_sealevel;temperature;humidity
62333;BME280;48624;49.812;8.562;2023-09-07T00:00:18;100914.34;;;17.81;83.79
62333;BME280;48624;49.812;8.562;2023-09-07T00:02:43;100911.63;;;17.91;83.08
62333;BME280;48624;49.812;8.562;2023-09-07T00:05:09;100904.44;;;17.71;84.19
62333;BME280;48624;49.812;8.562;2023-09-07T00:07:35;100903.56;;;17.51;85.80
62333;BME280;48624;49.812;8.562;2023-09-07T00:10:01;100905.09;;;17.44;86.23
62333;BME280;48624;49.812;8.562;2023-09-07T00:12:26;100904.38;;;17.22;87.96
62333;BME280;48624;49.812;8.562;2023-09-07T00:14:53;100907.56;;;17.16;88.18
62333;BME280;48624;49.812;8.562;2023-09-07T00:17:19;100902.97;;;17.18;88.01
62333;BME280;48624;49.812;8.562;2023-09-07T00:19:44;100903.38;;;17.13;88.71
62333;BME280;48624;49.812;8.562;2023-09-07T00:22:11;100901.16;;;17.28;87.31
62333;BME280;48624;49.812;8.562;2023-09-07T00:24:36;100899.41;;;17.17;87.27
62333;BME280;48624;49.812;8.562;2023-09-07T00:27:02;100905.34;;;17.21;87.33
62333;BME280;48624;49.812;8.562;2023-09-07T00:29:30;100894.19;;;17.06;88.49
62333;BME280;48624;49.812;8.562;2023-09-07T00:31:56;100899.06;;;17.01;88.69
62333;BME280;48624;49.812;8.562;2023-09-07T00:34:21;100895.91;;;17.17;87.02
62333;BME280;48624;49.812;8.562;2023-09-07T00:36:46;100901.41;;;16.84;90.10
62333;BME280;48624;49.812;8.562;2023-09-07T00:39:11;100903.69;;;16.99;88.33
62333;BME280;48624;49.812;8.562;2023-09-07T00:41:37;100905.59;;;16.77;90.70
62333;BME280;48624;49.812;8.562;2023-09-07T00:44:03;100900.22;;;16.46;93.10
62333;BME280;48624;49.812;8.562;2023-09-07T00:46:28;100902.03;;;16.45;93.11
62333;BME280;48624;49.812;8.562;2023-09-07T00:48:54;100894.13;;;16.44;93.23
62333;BME280;48624;49.812;8.562;2023-09-07T00:51:20;100897.28;;;16.49;92.59
62333;BME280;48624;49.812;8.562;2023-09-07T00:53:45;100897.09;;;16.41;93.76
62333;BME280;48624;49.812;8.562;2023-09-07T00:56:11;100895.13;;;16.21;95.08
62333;BME280;48624;49.812;8.562;2023-09-07T00:58:37;100896.88;;;16.32;94.67
62333;BME280;48624;49.812;8.562;2023-09-07T01:01:02;100896.06;;;16.32;94.68
62333;BME280;48624;49.812;8.562;2023-09-07T01:03:28;100892.66;;;16.30;94.93
62333;BME280;48624;49.812;8.562;2023-09-07T01:06:13;100892.13;;;16.36;94.52
62333;BME280;48624;49.812;8.562;2023-09-07T01:08:50;100882.53;;;16.33;94.68
62333;BME280;48624;49.812;8.562;2023-09-07T01:11:18;100885.59;;;16.29;94.57
62333;BME280;48624;49.812;8.562;2023-09-07T01:13:48;100883.53;;;16.32;94.38
62333;BME280;48624;49.812;8.562;2023-09-07T01:16:13;100878.13;;;16.22;95.20
62333;BME280;48624;49.812;8.562;2023-09-07T01:18:39;100867.84;;;16.49;92.85
62333;BME280;48624;49.812;8.562;2023-09-07T01:21:06;100872.44;;;16.37;93.62
62333;BME280;48624;49.812;8.562;2023-09-07T01:23:35;100866.50;;;16.64;91.67
62333;BME280;48624;49.812;8.562;2023-09-07T01:26:01;100865.47;;;16.25;94.45
62333;BME280;48624;49.812;8.562;2023-09-07T01:28:27;100868.97;;;16.25;95.01
62333;BME280;48624;49.812;8.562;2023-09-07T01:30:52;100866.69;;;16.20;95.05
62333;BME280;48624;49.812;8.562;2023-09-07T01:33:17;100867.44;;;16.22;94.54
62333;BME280;48624;49.812;8.562;2023-09-07T01:35:43;100874.09;;;16.07;95.64
62333;BME280;48624;49.812;8.562;2023-09-07T01:38:09;100864.69;;;15.91;96.02
62333;BME280;48624;49.812;8.562;2023-09-07T01:40:35;100869.56;;;16.07;95.30
62333;BME280;48624;49.812;8.562;2023-09-07T01:43:00;100869.03;;;15.92;96.44
62333;BME280;48624;49.812;8.562;2023-09-07T01:45:26;100875.28;;;15.81;97.48
62333;BME280;48624;49.812;8.562;2023-09-07T01:47:51;100866.88;;;15.86;97.28
62333;BME280;48624;49.812;8.562;2023-09-07T01:50:17;100865.78;;;15.89;96.52
62333;BME280;48624;49.812;8.562;2023-09-07T01:52:42;100870.53;;;15.85;97.04
62333;BME280;48624;49.812;8.562;2023-09-07T01:55:08;100866.88;;;15.86;96.64
62333;BME280;48624;49.812;8.562;2023-09-07T01:57:33;100862.88;;;15.92;96.28
62333;BME280;48624;49.812;8.562;2023-09-07T01:59:59;100864.81;;;16.11;94.34
62333;BME280;48624;49.812;8.562;2023-09-07T02:02:24;100866.84;;;16.19;93.63
62333;BME280;48624;49.812;8.562;2023-09-07T02:04:49;100867.09;;;16.16;93.89
62333;BME280;48624;49.812;8.562;2023-09-07T02:07:14;100865.28;;;15.84;96.21
62333;BME280;48624;49.812;8.562;2023-09-07T02:09:41;100862.63;;;15.84;96.57
62333;BME280;48624;49.812;8.562;2023-09-07T02:12:06;100866.25;;;15.94;95.63
62333;BME280;48624;49.812;8.562;2023-09-07T02:14:31;100865.09;;;15.75;96.81
62333;BME280;48624;49.812;8.562;2023-09-07T02:16:57;100865.03;;;15.87;95.18
62333;BME280;48624;49.812;8.562;2023-09-07T02:19:22;100869.03;;;15.60;97.91
62333;BME280;48624;49.812;8.562;2023-09-07T02:21:48;100866.19;;;15.40;99.07
62333;BME280;48624;49.812;8.562;2023-09-07T02:24:14;100852.63;;;15.64;97.55
62333;BME280;48624;49.812;8.562;2023-09-07T02:26:39;100858.50;;;15.58;97.95
62333;BME280;48624;49.812;8.562;2023-09-07T02:29:10;100858.53;;;15.47;98.63
62333;BME280;48624;49.812;8.562;2023-09-07T02:31:35;100860.06;;;15.61;97.81
62333;BME280;48624;49.812;8.562;2023-09-07T02:34:00;100859.31;;;15.59;98.17
62333;BME280;48624;49.812;8.562;2023-09-07T02:36:26;100861.50;;;15.65;97.24
62333;BME280;48624;49.812;8.562;2023-09-07T02:38:51;100859.63;;;15.77;96.21
62333;BME280;48624;49.812;8.562;2023-09-07T02:41:16;100868.94;;;15.82;95.17
62333;BME280;48624;49.812;8.562;2023-09-07T02:43:42;100864.59;;;15.49;98.13
62333;BME280;48624;49.812;8.562;2023-09-07T02:46:07;100865.56;;;15.48;98.41
62333;BME280;48624;49.812;8.562;2023-09-07T02:48:32;100871.63;;;15.50;97.87
62333;BME280;48624;49.812;8.562;2023-09-07T02:50:57;100864.59;;;15.49;98.38
62333;BME280;48624;49.812;8.562;2023-09-07T02:53:23;100862.44;;;15.31;99.88
62333;BME280;48624;49.812;8.562;2023-09-07T02:55:49;100864.88;;;15.23;100.00
62333;BME280;48624;49.812;8.562;2023-09-07T02:58:14;100855.78;;;15.25;100.00
62333;BME280;48624;49.812;8.562;2023-09-07T03:00:43;100862.34;;;15.33;100.00
62333;BME280;48624;49.812;8.562;2023-09-07T03:03:13;100864.28;;;15.19;100.00
62333;BME280;48624;49.812;8.562;2023-09-07T03:05:43;100868.28;;;15.25;100.00
62333;BME280;48624;49.812;8.562;2023-09-07T03:08:08;100866.22;;;15.29;100.00
62333;BME280;48624;49.812;8.562;2023-09-07T03:10:38;100859.91;;;15.30;100.00
62333;BME280;48624;49.812;8.562;2023-09-07T03:13:05;100859.41;;;15.36;100.00
62333;BME280;48624;49.812;8.562;2023-09-07T03:15:31;100862.22;;;15.23;100.00
62333;BME280;48624;49.812;8.562;2023-09-07T03:17:56;100850.19;;;15.29;100.00
62333;BME280;48624;49.812;8.562;2023-09-07T03:20:21;100849.38;;;15.28;100.00
62333;BME280;48624;49.812;8.562;2023-09-07T03:22:47;100859.31;;;15.15;100.00
62333;BME280;48624;49.812;8.562;2023-09-07T03:25:13;100859.06;;;15.29;100.00
62333;BME280;48624;49.812;8.562;2023-09-07T03:27:38;100855.19;;;15.22;100.00
62333;BME280;48624;49.812;8.562;2023-09-07T03:30:05;100858.72;;;15.11;100.00
62333;BME280;48624;49.812;8.562;2023-09-07T03:32:31;100868.28;;;15.25;100.00
62333;BME280;48624;49.812;8.562;2023-09-07T03:34:59;100863.06;;;15.12;100.00
62333;BME280;48624;49.812;8.562;2023-09-07T03:37:26;100869.03;;;15.04;100.00
62333;BME280;48624;49.812;8.562;2023-09-07T03:39:51;100857.66;;;14.91;100.00
62333;BME280;48624;49.812;8.562;2023-09-07T03:42:17;100856.91;;;15.11;100.00
62333;BME280;48624;49.812;8.562;2023-09-07T03:44:42;100862.78;;;14.82;100.00
62333;BME280;48624;49.812;8.562;2023-09-07T03:47:08;100858.75;;;15.00;100.00
62333;BME280;48624;49.812;8.562;2023-09-07T03:49:34;100854.41;;;14.87;100.00
62333;BME280;48624;49.812;8.562;2023-09-07T03:51:59;100860.56;;;14.88;100.00
62333;BME280;48624;49.812;8.562;2023-09-07T03:54:24;100856.47;;;14.83;100.00
62333;BME280;48624;49.812;8.562;2023-09-07T03:56:49;100863.13;;;14.78;100.00
62333;BME280;48624;49.812;8.562;2023-09-07T03:59:15;100861.28;;;15.01;100.00
62333;BME280;48624;49.812;8.562;2023-09-07T04:01:40;100861.75;;;15.06;100.00
62333;BME280;48624;49.812;8.562;2023-09-07T04:04:05;100864.69;;;15.03;100.00
62333;BME280;48624;49.812;8.562;2023-09-07T04:06:31;100867.00;;;14.96;100.00
62333;BME280;48624;49.812;8.562;2023-09-07T04:08:56;100861.28;;;15.12;100.00
62333;BME280;48624;49.812;8.562;2023-09-07T04:11:21;100856.69;;;15.03;100.00
62333;BME280;48624;49.812;8.562;2023-09-07T04:13:47;100857.78;;;14.78;100.00
62333;BME280;48624;49.812;8.562;2023-09-07T04:16:12;100857.78;;;14.78;100.00
62333;BME280;48624;49.812;8.562;2023-09-07T04:18:37;100863.34;;;14.75;100.00
62333;BME280;48624;49.812;8.562;2023-09-07T04:21:07;100869.53;;;14.87;100.00
62333;BME280;48624;49.812;8.562;2023-09-07T04:23:33;100866.03;;;14.86;100.00
62333;BME280;48624;49.812;8.562;2023-09-07T04:26:06;100872.81;;;15.02;99.94
62333;BME280;48624;49.812;8.562;2023-09-07T04:28:32;100868.78;;;15.07;99.39
62333;BME280;48624;49.812;8.562;2023-09-07T04:30:58;100877.41;;;15.11;98.59
62333;BME280;48624;49.812;8.562;2023-09-07T04:33:23;100875.66;;;15.44;95.61
62333;BME280;48624;49.812;8.562;2023-09-07T04:35:48;100880.41;;;15.29;96.68
62333;BME280;48624;49.812;8.562;2023-09-07T04:38:13;100877.13;;;15.37;96.87
62333;BME280;48624;49.812;8.562;2023-09-07T04:40:39;100877.94;;;15.49;95.42
62333;BME280;48624;49.812;8.562;2023-09-07T04:43:04;100870.53;;;15.41;95.89
62333;BME280;48624;49.812;8.562;2023-09-07T04:45:29;100879.00;;;15.58;95.33
62333;BME280;48624;49.812;8.562;2023-09-07T04:47:54;100881.63;;;15.69;94.35
62333;BME280;48624;49.812;8.562;2023-09-07T04:50:20;100880.53;;;15.72;94.22
62333;BME280;48624;49.812;8.562;2023-09-07T04:52:45;100883.41;;;15.80;93.54
62333;BME280;48624;49.812;8.562;2023-09-07T04:55:11;100879.59;;;15.94;92.43
62333;BME280;48624;49.812;8.562;2023-09-07T04:57:36;100878.28;;;15.88;92.97
62333;BME280;48624;49.812;8.562;2023-09-07T05:00:02;100873.78;;;15.89;92.64
62333;BME280;48624;49.812;8.562;2023-09-07T05:02:30;100883.38;;;15.91;92.63
62333;BME280;48624;49.812;8.562;2023-09-07T05:04:55;100892.38;;;15.90;92.51
62333;BME280;48624;49.812;8.562;2023-09-07T05:07:21;100892.38;;;15.90;92.27
62333;BME280;48624;49.812;8.562;2023-09-07T05:09:46;100890.56;;;15.91;92.70
62333;BME280;48624;49.812;8.562;2023-09-07T05:12:11;100889.31;;;15.95;92.15
62333;BME280;48624;49.812;8.562;2023-09-07T05:14:36;100893.84;;;15.94;92.29
62333;BME280;48624;49.812;8.562;2023-09-07T05:17:02;100896.63;;;15.81;93.02
62333;BME280;48624;49.812;8.562;2023-09-07T05:19:27;100888.59;;;15.93;92.26
62333;BME280;48624;49.812;8.562;2023-09-07T05:21:52;100890.97;;;15.63;95.37
62333;BME280;48624;49.812;8.562;2023-09-07T05:24:17;100895.50;;;15.63;95.68
62333;BME280;48624;49.812;8.562;2023-09-07T05:26:43;100899.75;;;15.54;96.69
62333;BME280;48624;49.812;8.562;2023-09-07T05:29:10;100904.88;;;15.57;96.60
62333;BME280;48624;49.812;8.562;2023-09-07T05:31:36;100915.03;;;15.63;96.05
62333;BME280;48624;49.812;8.562;2023-09-07T05:34:01;100912.50;;;15.50;97.77
62333;BME280;48624;49.812;8.562;2023-09-07T05:36:26;100916.97;;;15.61;96.77
62333;BME280;48624;49.812;8.562;2023-09-07T05:38:52;100907.50;;;15.68;96.24
62333;BME280;48624;49.812;8.562;2023-09-07T05:41:18;100905.81;;;15.67;96.66
62333;BME280;48624;49.812;8.562;2023-09-07T05:43:43;100909.28;;;15.91;94.95
62333;BME280;48624;49.812;8.562;2023-09-07T05:46:08;100911.75;;;16.04;93.98
62333;BME280;48624;49.812;8.562;2023-09-07T05:48:34;100906.97;;;16.07;93.79
62333;BME280;48624;49.812;8.562;2023-09-07T05:50:59;100909.63;;;16.19;93.00
62333;BME280;48624;49.812;8.562;2023-09-07T05:53:24;100914.03;;;16.30;92.73
62333;BME280;48624;49.812;8.562;2023-09-07T05:55:51;100910.34;;;16.42;91.89
62333;BME280;48624;49.812;8.562;2023-09-07T05:58:17;100907.78;;;16.41;92.23
62333;BME280;48624;49.812;8.562;2023-09-07T06:00:42;100919.66;;;16.48;92.06
62333;BME280;48624;49.812;8.562;2023-09-07T06:03:08;100913.25;;;16.60;91.78
62333;BME280;48624;49.812;8.562;2023-09-07T06:05:35;100910.03;;;16.67;91.92
62333;BME280;48624;49.812;8.562;2023-09-07T06:08:01;100914.19;;;16.81;91.17
62333;BME280;48624;49.812;8.562;2023-09-07T06:10:30;100911.53;;;16.90;91.31
62333;BME280;48624;49.812;8.562;2023-09-07T06:12:55;100919.16;;;16.85;92.46
62333;BME280;48624;49.812;8.562;2023-09-07T06:15:22;100904.91;;;17.16;89.70
62333;BME280;48624;49.812;8.562;2023-09-07T06:17:47;100915.94;;;17.32;89.01
62333;BME280;48624;49.812;8.562;2023-09-07T06:20:13;100925.56;;;17.55;87.50
62333;BME280;48624;49.812;8.562;2023-09-07T06:22:38;100915.59;;;17.77;86.44
62333;BME280;48624;49.812;8.562;2023-09-07T06:25:03;100921.09;;;17.95;85.93
62333;BME280;48624;49.812;8.562;2023-09-07T06:27:29;100934.38;;;18.16;84.88
62333;BME280;48624;49.812;8.562;2023-09-07T06:29:54;100932.81;;;18.33;83.26
62333;BME280;48624;49.812;8.562;2023-09-07T06:32:20;100933.09;;;18.40;82.98
62333;BME280;48624;49.812;8.562;2023-09-07T06:34:45;100933.47;;;18.55;81.57
62333;BME280;48624;49.812;8.562;2023-09-07T06:37:11;100931.16;;;18.70;81.35
62333;BME280;48624;49.812;8.562;2023-09-07T06:39:36;100926.88;;;18.87;80.16
62333;BME280;48624;49.812;8.562;2023-09-07T06:42:02;100929.66;;;19.05;79.52
62333;BME280;48624;49.812;8.562;2023-09-07T06:44:28;100930.88;;;19.21;78.26
62333;BME280;48624;49.812;8.562;2023-09-07T06:46:54;100929.81;;;19.32;77.46
62333;BME280;48624;49.812;8.562;2023-09-07T06:49:19;100938.84;;;19.31;78.07
62333;BME280;48624;49.812;8.562;2023-09-07T06:51:45;100937.28;;;19.38;77.67
62333;BME280;48624;49.812;8.562;2023-09-07T06:54:10;100943.44;;;19.48;77.04
62333;BME280;48624;49.812;8.562;2023-09-07T06:56:36;100936.38;;;19.65;75.28
62333;BME280;48624;49.812;8.562;2023-09-07T06:59:01;100943.06;;;19.79;75.82
62333;BME280;48624;49.812;8.562;2023-09-07T07:01:26;100937.91;;;19.86;75.98
62333;BME280;48624;49.812;8.562;2023-09-07T07:03:52;100936.09;;;20.05;75.04
62333;BME280;48624;49.812;8.562;2023-09-07T07:06:18;100945.31;;;20.20;73.87
62333;BME280;48624;49.812;8.562;2023-09-07T07:08:43;100943.06;;;20.34;74.18
62333;BME280;48624;49.812;8.562;2023-09-07T07:11:09;100941.38;;;20.33;73.76
62333;BME280;48624;49.812;8.562;2023-09-07T07:13:34;100949.28;;;20.34;72.96
62333;BME280;48624;49.812;8.562;2023-09-07T07:15:59;100955.56;;;20.43;73.22
62333;BME280;48624;49.812;8.562;2023-09-07T07:18:25;100950.84;;;20.63;72.85
62333;BME280;48624;49.812;8.562;2023-09-07T07:20:50;100956.53;;;20.60;71.71
62333;BME280;48624;49.812;8.562;2023-09-07T07:23:16;100957.56;;;20.86;71.49
62333;BME280;48624;49.812;8.562;2023-09-07T07:25:41;100965.13;;;20.82;71.09
62333;BME280;48624;49.812;8.562;2023-09-07T07:28:07;100961.19;;;21.03;70.27
62333;BME280;48624;49.812;8.562;2023-09-07T07:30:34;100967.56;;;21.02;70.00
62333;BME280;48624;49.812;8.562;2023-09-07T07:32:59;100961.66;;;20.98;70.08
62333;BME280;48624;49.812;8.562;2023-09-07T07:35:25;100961.78;;;21.23;69.17
62333;BME280;48624;49.812;8.562;2023-09-07T07:37:50;100964.50;;;21.31;69.12
62333;BME280;48624;49.812;8.562;2023-09-07T07:40:16;100965.13;;;21.17;69.28
62333;BME280;48624;49.812;8.562;2023-09-07T07:42:43;100954.59;;;21.40;68.59
62333;BME280;48624;49.812;8.562;2023-09-07T07:45:08;100966.75;;;21.53;67.89
62333;BME280;48624;49.812;8.562;2023-09-07T07:47:34;100963.97;;;21.71;67.48
62333;BME280;48624;49.812;8.562;2023-09-07T07:49:59;100969.03;;;21.82;67.03
62333;BME280;48624;49.812;8.562;2023-09-07T07:52:24;100965.34;;;21.92;66.98
62333;BME280;48624;49.812;8.562;2023-09-07T07:54:50;100965.38;;;22.16;66.16
62333;BME280;48624;49.812;8.562;2023-09-07T07:57:15;100955.78;;;22.22;66.08
62333;BME280;48624;49.812;8.562;2023-09-07T07:59:40;100952.88;;;22.24;66.05
62333;BME280;48624;49.812;8.562;2023-09-07T08:02:05;100954.91;;;22.30;65.32
62333;BME280;48624;49.812;8.562;2023-09-07T08:04:31;100954.41;;;22.43;64.71
62333;BME280;48624;49.812;8.562;2023-09-07T08:06:57;100957.94;;;22.60;64.09
62333;BME280;48624;49.812;8.562;2023-09-07T08:09:29;100964.34;;;22.67;64.69
62333;BME280;48624;49.812;8.562;2023-09-07T08:11:54;100962.56;;;22.99;62.96
62333;BME280;48624;49.812;8.562;2023-09-07T08:14:21;100955.50;;;22.90;63.04
62333;BME280;48624;49.812;8.562;2023-09-07T08:16:47;100957.84;;;23.02;62.60
62333;BME280;48624;49.812;8.562;2023-09-07T08:19:12;100959.00;;;23.07;62.73
62333;BME280;48624;49.812;8.562;2023-09-07T08:21:38;100960.47;;;23.18;63.06
62333;BME280;48624;49.812;8.562;2023-09-07T08:24:03;100961.63;;;23.32;62.34
62333;BME280;48624;49.812;8.562;2023-09-07T08:26:29;100949.50;;;23.28;61.71
62333;BME280;48624;49.812;8.562;2023-09-07T08:28:54;100958.88;;;23.40;60.66
62333;BME280;48624;49.812;8.562;2023-09-07T08:31:19;100965.09;;;23.49;61.21
62333;BME280;48624;49.812;8.562;2023-09-07T08:33:48;100964.28;;;23.40;60.66
62333;BME280;48624;49.812;8.562;2023-09-07T08:36:15;100967.41;;;23.61;61.17
62333;BME280;48624;49.812;8.562;2023-09-07T08:38:42;100964.88;;;23.82;59.68
62333;BME280;48624;49.812;8.562;2023-09-07T08:41:08;100959.41;;;23.91;59.59
62333;BME280;48624;49.812;8.562;2023-09-07T08:43:37;100954.84;;;23.91;59.08
62333;BME280;48624;49.812;8.562;2023-09-07T08:46:24;100966.47;;;24.23;57.96
62333;BME280;48624;49.812;8.562;2023-09-07T08:48:50;100964.47;;;24.17;58.80
62333;BME280;48624;49.812;8.562;2023-09-07T08:51:18;100968.25;;;24.31;59.08
62333;BME280;48624;49.812;8.562;2023-09-07T08:53:44;100964.56;;;24.47;57.42
62333;BME280;48624;49.812;8.562;2023-09-07T08:56:12;100958.22;;;24.55;57.33
62333;BME280;48624;49.812;8.562;2023-09-07T08:58:38;100961.78;;;24.71;56.00
62333;BME280;48624;49.812;8.562;2023-09-07T09:01:03;100965.88;;;24.51;57.46
62333;BME280;48624;49.812;8.562;2023-09-07T09:03:28;100964.59;;;24.77;57.33
62333;BME280;48624;49.812;8.562;2023-09-07T09:05:56;100965.56;;;25.00;56.73
62333;BME280;48624;49.812;8.562;2023-09-07T09:08:21;100963.31;;;25.18;56.00
62333;BME280;48624;49.812;8.562;2023-09-07T09:10:57;100968.53;;;25.20;55.63
62333;BME280;48624;49.812;8.562;2023-09-07T09:13:30;100961.59;;;25.32;55.32
62333;BME280;48624;49.812;8.562;2023-09-07T09:16:00;100964.16;;;25.71;54.58
62333;BME280;48624;49.812;8.562;2023-09-07T09:18:28;100956.41;;;25.89;53.86
62333;BME280;48624;49.812;8.562;2023-09-07T09:20:55;100960.91;;;26.04;53.47
62333;BME280;48624;49.812;8.562;2023-09-07T09:23:20;100953.38;;;26.21;53.00
62333;BME280;48624;49.812;8.562;2023-09-07T09:25:48;100949.03;;;26.05;52.33
62333;BME280;48624;49.812;8.562;2023-09-07T09:28:13;100956.56;;;26.31;51.24
62333;BME280;48624;49.812;8.562;2023-09-07T09:30:39;100953.38;;;26.21;51.55
62333;BME280;48624;49.812;8.562;2023-09-07T09:33:06;100954.06;;;26.30;50.61
62333;BME280;48624;49.812;8.562;2023-09-07T09:35:32;100952.63;;;26.34;50.43
62333;BME280;48624;49.812;8.562;2023-09-07T09:38:01;100948.28;;;26.40;49.92
62333;BME280;48624;49.812;8.562;2023-09-07T09:40:31;100944.63;;;26.26;51.22
62333;BME280;48624;49.812;8.562;2023-09-07T09:42:57;100936.69;;;26.24;50.94
62333;BME280;48624;49.812;8.562;2023-09-07T09:45:23;100933.25;;;26.37;51.08
62333;BME280;48624;49.812;8.562;2023-09-07T09:47:51;100931.16;;;26.39;50.93
62333;BME280;48624;49.812;8.562;2023-09-07T09:50:19;100925.91;;;26.38;51.37
62333;BME280;48624;49.812;8.562;2023-09-07T09:52:45;100926.22;;;26.50;50.73
62333;BME280;48624;49.812;8.562;2023-09-07T09:55:12;100920.59;;;26.23;51.46
62333;BME280;48624;49.812;8.562;2023-09-07T09:57:38;100917.34;;;26.69;50.12
62333;BME280;48624;49.812;8.562;2023-09-07T10:00:07;100907.72;;;26.67;50.67
62333;BME280;48624;49.812;8.562;2023-09-07T10:02:44;100908.31;;;26.91;49.82
62333;BME280;48624;49.812;8.562;2023-09-07T10:05:11;100914.44;;;26.71;49.86
62333;BME280;48624;49.812;8.562;2023-09-07T10:07:43;100909.56;;;26.95;50.44
62333;BME280;48624;49.812;8.562;2023-09-07T10:10:17;100904.91;;;26.89;48.64
62333;BME280;48624;49.812;8.562;2023-09-07T10:12:53;100906.31;;;27.13;49.55
62333;BME280;48624;49.812;8.562;2023-09-07T10:15:25;100898.38;;;27.25;48.47
62333;BME280;48624;49.812;8.562;2023-09-07T10:18:02;100897.94;;;27.21;49.33
62333;BME280;48624;49.812;8.562;2023-09-07T10:20:27;100897.38;;;27.33;48.95
62333;BME280;48624;49.812;8.562;2023-09-07T10:23:02;100898.59;;;27.30;48.13
62333;BME280;48624;49.812;8.562;2023-09-07T10:25:30;100888.06;;;27.07;49.58
62333;BME280;48624;49.812;8.562;2023-09-07T10:27:55;100891.94;;;27.33;48.77
62333;BME280;48624;49.812;8.562;2023-09-07T10:32:49;100880.81;;;27.34;48.56
62333;BME280;48624;49.812;8.562;2023-09-07T10:35:15;100884.41;;;27.35;48.30
62333;BME280;48624;49.812;8.562;2023-09-07T10:37:44;100882.72;;;27.40;48.68
62333;BME280;48624;49.812;8.562;2023-09-07T10:40:11;100878.59;;;27.58;47.49
62333;BME280;48624;49.812;8.562;2023-09-07T10:42:37;100873.16;;;27.58;48.33
62333;BME280;48624;49.812;8.562;2023-09-07T10:45:13;100876.31;;;28.09;46.27
62333;BME280;48624;49.812;8.562;2023-09-07T10:47:42;100886.16;;;28.10;46.48
62333;BME280;48624;49.812;8.562;2023-09-07T10:50:10;100886.94;;;28.51;45.60
62333;BME280;48624;49.812;8.562;2023-09-07T10:52:36;100879.53;;;28.72;44.91
62333;BME280;48624;49.812;8.562;2023-09-07T10:55:01;100882.81;;;29.07;44.43
62333;BME280;48624;49.812;8.562;2023-09-07T10:57:26;100874.59;;;29.14;43.31
62333;BME280;48624;49.812;8.562;2023-09-07T10:59:52;100869.97;;;29.79;42.29
62333;BME280;48624;49.812;8.562;2023-09-07T11:02:20;100875.88;;;30.01;42.02
62333;BME280;48624;49.812;8.562;2023-09-07T11:04:45;100868.50;;;30.02;40.16
62333;BME280;48624;49.812;8.562;2023-09-07T11:07:11;100858.22;;;30.04;40.22
62333;BME280;48624;49.812;8.562;2023-09-07T11:09:41;100850.47;;;30.45;39.70
62333;BME280;48624;49.812;8.562;2023-09-07T11:12:07;100852.72;;;30.29;40.20
62333;BME280;48624;49.812;8.562;2023-09-07T11:14:33;100858.66;;;30.82;39.16
62333;BME280;48624;49.812;8.562;2023-09-07T11:17:00;100854.00;;;30.27;38.30
62333;BME280;48624;49.812;8.562;2023-09-07T11:19:25;100851.50;;;30.63;38.00
62333;BME280;48624;49.812;8.562;2023-09-07T11:21:53;100847.03;;;30.68;37.43
62333;BME280;48624;49.812;8.562;2023-09-07T11:24:18;100840.88;;;30.73;38.01
62333;BME280;48624;49.812;8.562;2023-09-07T11:26:45;100840.75;;;31.17;37.48
62333;BME280;48624;49.812;8.562;2023-09-07T11:29:17;100843.06;;;31.32;36.16
62333;BME280;48624;49.812;8.562;2023-09-07T11:31:44;100833.78;;;31.33;36.40
62333;BME280;48624;49.812;8.562;2023-09-07T11:34:14;100836.72;;;31.74;35.26
62333;BME280;48624;49.812;8.562;2023-09-07T11:36:40;100833.75;;;32.00;36.44
62333;BME280;48624;49.812;8.562;2023-09-07T11:39:06;100841.13;;;32.23;36.03
62333;BME280;48624;49.812;8.562;2023-09-07T11:41:42;100834.56;;;32.24;35.03
62333;BME280;48624;49.812;8.562;2023-09-07T11:44:08;100832.78;;;32.54;34.61
62333;BME280;48624;49.812;8.562;2023-09-07T11:46:33;100841.72;;;31.77;35.02
62333;BME280;48624;49.812;8.562;2023-09-07T11:48:59;100837.44;;;32.41;35.15
62333;BME280;48624;49.812;8.562;2023-09-07T11:51:25;100837.00;;;32.73;34.08
62333;BME280;48624;49.812;8.562;2023-09-07T11:53:50;100831.94;;;32.41;33.86
62333;BME280;48624;49.812;8.562;2023-09-07T11:56:16;100831.38;;;32.80;33.63
62333;BME280;48624;49.812;8.562;2023-09-07T11:58:41;100832.00;;;32.58;33.92
62333;BME280;48624;49.812;8.562;2023-09-07T12:01:07;100828.81;;;32.90;32.94
62333;BME280;48624;49.812;8.562;2023-09-07T12:03:34;100828.13;;;32.42;33.61
62333;BME280;48624;49.812;8.562;2023-09-07T12:05:59;100828.31;;;33.05;33.25
62333;BME280;48624;49.812;8.562;2023-09-07T12:08:25;100831.06;;;32.52;33.67
62333;BME280;48624;49.812;8.562;2023-09-07T12:10:50;100818.59;;;32.45;33.51
62333;BME280;48624;49.812;8.562;2023-09-07T12:13:15;100816.81;;;32.79;33.55
62333;BME280;48624;49.812;8.562;2023-09-07T12:15:41;100812.31;;;32.73;33.54
62333;BME280;48624;49.812;8.562;2023-09-07T12:18:06;100809.66;;;32.78;33.34
62333;BME280;48624;49.812;8.562;2023-09-07T12:20:32;100811.09;;;33.27;32.49
62333;BME280;48624;49.812;8.562;2023-09-07T12:23:00;100804.47;;;33.40;32.70
62333;BME280;48624;49.812;8.562;2023-09-07T12:25:25;100805.22;;;33.53;31.22
62333;BME280;48624;49.812;8.562;2023-09-07T12:27:51;100808.97;;;33.00;33.05
62333;BME280;48624;49.812;8.562;2023-09-07T12:30:19;100795.66;;;33.55;31.21
62333;BME280;48624;49.812;8.562;2023-09-07T12:32:45;100800.03;;;33.90;30.46
62333;BME280;48624;49.812;8.562;2023-09-07T12:35:10;100796.53;;;33.95;29.67
62333;BME280;48624;49.812;8.562;2023-09-07T12:37:36;100789.41;;;33.43;31.27
62333;BME280;48624;49.812;8.562;2023-09-07T12:40:03;100798.22;;;33.62;30.73
62333;BME280;48624;49.812;8.562;2023-09-07T12:42:31;100796.72;;;33.37;31.64
62333;BME280;48624;49.812;8.562;2023-09-07T12:44:57;100792.50;;;33.63;31.26